Time,TemperatureF,DewpointF,PressureIn,WindDirection,WindDirectionDegrees,WindSpeedMPH,WindSpeedGustMPH,Humidity,HourlyPrecipIn,Conditions,Clouds,dailyrainin,SoftwareType,DateUTC
2013-03-02 00:01:00,35.0,32.0,-100.00,SSW,198,2.0,3.0,89,0.00,,,-99.99,,2013-03-02 07:01:00,
2013-03-02 00:11:00,35.0,32.0,-100.00,NW,320,2.0,2.0,90,0.00,,,-99.99,,2013-03-02 07:11:00,
2013-03-02 00:21:00,35.0,32.0,-100.00,NW,320,2.0,2.0,90,0.00,,,-99.99,,2013-03-02 07:21:00,
2013-03-02 00:32:00,35.0,32.0,-100.00,NW,320,2.0,2.0,90,0.00,,,-99.99,,2013-03-02 07:32:00,
2013-03-02 00:41:00,36.0,33.0,-100.00,SSW,196,4.0,6.0,89,0.00,,,-99.99,,2013-03-02 07:41:00,
2013-03-02 00:52:00,36.0,33.0,-100.00,SSW,196,4.0,6.0,89,0.00,,,-99.99,,2013-03-02 07:52:00,
2013-03-02 01:01:00,36.0,33.0,-100.00,SSW,196,4.0,6.0,89,0.00,,,-99.99,,2013-03-02 08:01:00,
2013-03-02 01:11:00,35.0,31.0,-100.00,SW,216,1.0,2.0,88,0.00,,,-99.99,,2013-03-02 08:11:00,
2013-03-02 01:21:00,33.0,31.0,-100.00,SW,233,0.0,0.0,92,0.00,,,-99.99,,2013-03-02 08:21:00,
2013-03-02 01:32:00,33.0,31.0,-100.00,SW,233,0.0,0.0,92,0.00,,,-99.99,,2013-03-02 08:32:00,
2013-03-02 01:42:00,33.0,31.0,-100.00,North,349,2.0,2.0,94,0.00,,,-99.99,,2013-03-02 08:42:00,
2013-03-02 01:52:00,33.0,32.0,-100.00,NE,41,2.0,3.0,95,0.00,,,-99.99,,2013-03-02 08:52:00,
2013-03-02 02:01:00,33.0,32.0,-100.00,NE,41,2.0,3.0,95,0.00,,,-99.99,,2013-03-02 09:01:00,
2013-03-02 02:11:00,33.0,32.0,-100.00,NE,41,2.0,3.0,95,0.00,,,-99.99,,2013-03-02 09:11:00,
2013-03-02 02:21:00,32.0,31.0,-100.00,West,280,1.0,1.0,95,0.00,,,-99.99,,2013-03-02 09:21:00,
2013-03-02 02:31:00,32.0,31.0,-100.00,West,280,1.0,1.0,95,0.00,,,-99.99,,2013-03-02 09:31:00,
2013-03-02 02:42:00,32.0,31.0,-100.00,West,280,0.0,0.0,96,0.00,,,-99.99,,2013-03-02 09:42:00,
2013-03-02 02:52:00,32.0,31.0,-100.00,SSE,154,2.0,3.0,95,0.00,,,-99.99,,2013-03-02 09:52:00,
2013-03-02 03:01:00,32.0,31.0,-100.00,SSE,154,2.0,3.0,95,0.00,,,-99.99,,2013-03-02 10:01:00,
2013-03-02 03:14:00,32.0,31.0,-100.00,SSE,154,2.0,3.0,95,0.00,,,-99.99,,2013-03-02 10:14:00,
2013-03-02 03:21:00,32.0,31.0,-100.00,ESE,102,1.0,2.0,95,0.00,,,-99.99,,2013-03-02 10:21:00,
2013-03-02 03:31:00,32.0,31.0,-100.00,ESE,102,1.0,2.0,95,0.00,,,-99.99,,2013-03-02 10:31:00,
2013-03-02 03:42:00,33.0,31.0,-100.00,NNW,347,3.0,4.0,95,0.00,,,-99.99,,2013-03-02 10:42:00,
2013-03-02 03:52:00,33.0,31.0,-100.00,NNW,347,3.0,4.0,95,0.00,,,-99.99,,2013-03-02 10:52:00,
2013-03-02 04:01:00,33.0,31.0,-100.00,NNW,347,3.0,4.0,95,0.00,,,-99.99,,2013-03-02 11:01:00,
2013-03-02 04:11:00,32.0,31.0,-100.00,NNE,28,4.0,5.0,96,0.00,,,-99.99,,2013-03-02 11:11:00,
2013-03-02 04:21:00,32.0,31.0,-100.00,NE,56,2.0,3.0,97,0.00,,,-99.99,,2013-03-02 11:21:00,
2013-03-02 04:31:00,32.0,31.0,-100.00,NE,56,2.0,3.0,97,0.00,,,-99.99,,2013-03-02 11:31:00,
2013-03-02 04:41:00,32.0,31.0,-100.00,ESE,107,0.0,0.0,97,0.00,,,-99.99,,2013-03-02 11:41:00,
2013-03-02 04:52:00,32.0,31.0,-100.00,ESE,107,1.0,2.0,97,0.00,,,-99.99,,2013-03-02 11:52:00,
2013-03-02 05:02:00,32.0,31.0,-100.00,ESE,107,1.0,2.0,97,0.00,,,-99.99,,2013-03-02 12:02:00,
2013-03-02 05:11:00,32.0,31.0,-100.00,ESE,107,1.0,2.0,97,0.00,,,-99.99,,2013-03-02 12:11:00,
2013-03-02 05:21:00,31.0,30.0,-100.00,NNW,339,0.0,1.0,97,0.00,,,-99.99,,2013-03-02 12:21:00,
2013-03-02 05:32:00,31.0,30.0,-100.00,NNW,339,0.0,1.0,97,0.00,,,-99.99,,2013-03-02 12:32:00,
2013-03-02 05:43:00,29.0,29.0,-100.00,ESE,112,2.0,2.0,98,0.00,,,-99.99,,2013-03-02 12:43:00,
2013-03-02 05:53:00,31.0,30.0,-100.00,SE,124,1.0,2.0,98,0.00,,,-99.99,,2013-03-02 12:53:00,
2013-03-02 06:01:00,31.0,30.0,-100.00,SE,124,1.0,2.0,98,0.00,,,-99.99,,2013-03-02 13:01:00,
2013-03-02 06:11:00,31.0,31.0,-100.00,SSE,148,3.0,3.0,98,0.00,,,-99.99,,2013-03-02 13:11:00,
2013-03-02 06:21:00,31.0,31.0,-100.00,SSE,148,3.0,3.0,98,0.00,,,-99.99,,2013-03-02 13:21:00,
2013-03-02 06:31:00,31.0,31.0,-100.00,SSE,148,3.0,3.0,98,0.00,,,-99.99,,2013-03-02 13:31:00,
2013-03-02 06:41:00,33.0,32.0,-100.00,SSE,164,3.0,4.0,97,0.00,,,-99.99,,2013-03-02 13:41:00,
2013-03-02 06:52:00,33.0,32.0,-100.00,SSE,164,3.0,4.0,97,0.00,,,-99.99,,2013-03-02 13:52:00,
2013-03-02 07:01:00,33.0,32.0,-100.00,SSE,164,3.0,4.0,97,0.00,,,-99.99,,2013-03-02 14:01:00,
2013-03-02 07:11:00,33.0,32.0,-100.00,SW,215,4.0,6.0,95,0.00,,,-99.99,,2013-03-02 14:11:00,
2013-03-02 07:21:00,32.0,30.0,-100.00,NW,323,2.0,4.0,93,0.00,,,-99.99,,2013-03-02 14:21:00,
2013-03-02 07:32:00,32.0,30.0,-100.00,NW,323,2.0,4.0,93,0.00,,,-99.99,,2013-03-02 14:32:00,
2013-03-02 07:42:00,32.0,30.0,-100.00,NW,323,2.0,4.0,93,0.00,,,-99.99,,2013-03-02 14:42:00,
2013-03-02 07:52:00,31.0,29.0,-100.00,NNE,17,6.0,7.0,94,0.00,,,-99.99,,2013-03-02 14:52:00,
2013-03-02 08:01:00,31.0,29.0,-100.00,NNE,17,6.0,7.0,94,0.00,,,-99.99,,2013-03-02 15:01:00,
2013-03-02 08:11:00,31.0,30.0,-100.00,SE,134,2.0,3.0,96,0.00,,,-99.99,,2013-03-02 15:11:00,
2013-03-02 08:21:00,29.0,27.0,-100.00,SW,234,2.0,3.0,96,0.00,,,-99.99,,2013-03-02 15:21:00,
2013-03-02 08:31:00,29.0,27.0,-100.00,SW,234,2.0,3.0,96,0.00,,,-99.99,,2013-03-02 15:31:00,
2013-03-02 08:41:00,29.0,27.0,-100.00,SW,234,2.0,3.0,96,0.00,,,-99.99,,2013-03-02 15:41:00,
2013-03-02 08:52:00,29.0,28.0,-100.00,SW,223,1.0,2.0,97,0.00,,,-99.99,,2013-03-02 15:52:00,
2013-03-02 09:01:00,29.0,28.0,-100.00,SW,223,1.0,2.0,97,0.00,,,-99.99,,2013-03-02 16:01:00,
2013-03-02 09:11:00,29.0,29.0,-100.00,SSW,208,0.0,2.0,98,0.00,,,-99.99,,2013-03-02 16:11:00,
2013-03-02 09:21:00,30.0,29.0,-100.00,WSW,237,1.0,2.0,98,0.00,,,-99.99,,2013-03-02 16:21:00,
2013-03-02 09:31:00,30.0,29.0,-100.00,WSW,237,1.0,2.0,98,0.00,,,-99.99,,2013-03-02 16:31:00,
2013-03-02 09:41:00,32.0,31.0,-100.00,WSW,248,1.0,2.0,99,0.00,,,-99.99,,2013-03-02 16:41:00,
2013-03-02 09:52:00,34.0,34.0,-100.00,WNW,295,2.0,3.0,98,0.00,,,-99.99,,2013-03-02 16:52:00,
2013-03-02 10:01:00,34.0,34.0,-100.00,WNW,295,2.0,3.0,98,0.00,,,-99.99,,2013-03-02 17:01:00,
2013-03-02 10:11:00,34.0,34.0,-100.00,WNW,295,2.0,3.0,98,0.00,,,-99.99,,2013-03-02 17:11:00,
2013-03-02 10:21:00,35.0,34.0,-100.00,NNW,332,1.0,3.0,97,0.00,,,-99.99,,2013-03-02 17:21:00,
2013-03-02 10:31:00,35.0,34.0,-100.00,NNW,332,1.0,3.0,97,0.00,,,-99.99,,2013-03-02 17:31:00,
2013-03-02 10:41:00,36.0,34.0,-100.00,NNW,329,5.0,5.0,92,0.00,,,-99.99,,2013-03-02 17:41:00,
2013-03-02 10:52:00,38.0,34.0,-100.00,NNE,30,7.0,9.0,88,0.00,,,-99.99,,2013-03-02 17:52:00,
2013-03-02 11:01:00,38.0,34.0,-100.00,NNE,30,7.0,9.0,88,0.00,,,-99.99,,2013-03-02 18:01:00,
2013-03-02 11:11:00,38.0,34.0,-100.00,NNE,30,7.0,9.0,88,0.00,,,-99.99,,2013-03-02 18:11:00,
2013-03-02 11:22:00,38.0,34.0,-100.00,NNE,17,7.0,8.0,84,0.00,,,-99.99,,2013-03-02 18:22:00,
2013-03-02 11:31:00,38.0,34.0,-100.00,NNE,17,7.0,8.0,84,0.00,,,-99.99,,2013-03-02 18:31:00,
2013-03-02 11:42:00,41.0,36.0,-100.00,NNE,28,6.0,7.0,83,0.00,,,-99.99,,2013-03-02 18:42:00,
2013-03-02 11:52:00,42.0,36.0,-100.00,NNW,343,4.0,7.0,80,0.00,,,-99.99,,2013-03-02 18:52:00,
2013-03-02 12:01:00,42.0,36.0,-100.00,NNW,343,4.0,7.0,80,0.00,,,-99.99,,2013-03-02 19:01:00,
2013-03-02 12:11:00,43.0,36.0,-100.00,North,356,3.0,6.0,76,0.00,,,-99.99,,2013-03-02 19:11:00,
2013-03-02 12:21:00,44.0,36.0,-100.00,NW,316,5.0,6.0,74,0.00,,,-99.99,,2013-03-02 19:21:00,
2013-03-02 12:31:00,44.0,36.0,-100.00,NW,316,5.0,6.0,74,0.00,,,-99.99,,2013-03-02 19:31:00,
2013-03-02 12:42:00,46.0,37.0,-100.00,NW,309,3.0,5.0,72,0.00,,,-99.99,,2013-03-02 19:42:00,
2013-03-02 12:52:00,46.0,37.0,-100.00,North,356,4.0,6.0,72,0.00,,,-99.99,,2013-03-02 19:52:00,
2013-03-02 13:01:00,46.0,37.0,-100.00,North,356,4.0,6.0,72,0.00,,,-99.99,,2013-03-02 20:01:00,
2013-03-02 13:11:00,46.0,37.0,-100.00,NNE,24,6.0,8.0,69,0.00,,,-99.99,,2013-03-02 20:11:00,
2013-03-02 13:21:00,47.0,37.0,-100.00,North,1,5.0,7.0,68,0.00,,,-99.99,,2013-03-02 20:21:00,
2013-03-02 13:31:00,47.0,37.0,-100.00,North,1,5.0,7.0,68,0.00,,,-99.99,,2013-03-02 20:31:00,
2013-03-02 13:41:00,48.0,38.0,-100.00,NNW,336,6.0,8.0,66,0.00,,,-99.99,,2013-03-02 20:41:00,
2013-03-02 13:52:00,48.0,38.0,-100.00,NNW,336,6.0,8.0,66,0.00,,,-99.99,,2013-03-02 20:52:00,
2013-03-02 14:02:00,48.0,38.0,-100.00,NNW,336,6.0,8.0,66,0.00,,,-99.99,,2013-03-02 21:02:00,
2013-03-02 14:11:00,47.0,38.0,-100.00,North,0,8.0,11.0,70,0.00,,,-99.99,,2013-03-02 21:11:00,
2013-03-02 14:21:00,47.0,37.0,-100.00,NNE,25,7.0,9.0,67,0.00,,,-99.99,,2013-03-02 21:21:00,
2013-03-02 14:31:00,47.0,37.0,-100.00,NNE,25,7.0,9.0,67,0.00,,,-99.99,,2013-03-02 21:31:00,
2013-03-02 14:42:00,47.0,37.0,-100.00,NNE,25,7.0,9.0,67,0.00,,,-99.99,,2013-03-02 21:42:00,
2013-03-02 14:52:00,48.0,37.0,-100.00,NNE,16,6.0,8.0,66,0.00,,,-99.99,,2013-03-02 21:52:00,
2013-03-02 15:01:00,48.0,37.0,-100.00,NNE,16,6.0,8.0,66,0.00,,,-99.99,,2013-03-02 22:01:00,
2013-03-02 15:11:00,47.0,37.0,-100.00,NNE,24,7.0,9.0,69,0.00,,,-99.99,,2013-03-02 22:11:00,
2013-03-02 15:21:00,48.0,37.0,-100.00,NNE,31,6.0,8.0,66,0.00,,,-99.99,,2013-03-02 22:21:00,
2013-03-02 15:32:00,48.0,37.0,-100.00,NNE,31,6.0,8.0,66,0.00,,,-99.99,,2013-03-02 22:32:00,
2013-03-02 15:42:00,48.0,37.0,-100.00,NNE,31,6.0,8.0,66,0.00,,,-99.99,,2013-03-02 22:42:00,
2013-03-02 15:52:00,51.0,34.0,-100.00,SW,229,7.0,11.0,51,0.00,,,-99.99,,2013-03-02 22:52:00,
2013-03-02 16:01:00,51.0,34.0,-100.00,SW,229,7.0,11.0,51,0.00,,,-99.99,,2013-03-02 23:01:00,
2013-03-02 16:11:00,51.0,34.0,-100.00,SSW,195,9.0,12.0,51,0.00,,,-99.99,,2013-03-02 23:11:00,
2013-03-02 16:21:00,51.0,34.0,-100.00,SSW,198,11.0,15.0,52,0.00,,,-99.99,,2013-03-02 23:21:00,
2013-03-02 16:31:00,51.0,34.0,-100.00,SSW,198,11.0,15.0,52,0.00,,,-99.99,,2013-03-02 23:31:00,
2013-03-02 16:41:00,51.0,34.0,-100.00,South,181,11.0,16.0,52,0.00,,,-99.99,,2013-03-02 23:41:00,
2013-03-02 16:52:00,51.0,34.0,-100.00,South,181,11.0,16.0,52,0.00,,,-99.99,,2013-03-02 23:52:00,
2013-03-02 17:02:00,51.0,34.0,-100.00,South,181,11.0,16.0,52,0.00,,,-99.99,,2013-03-03 00:02:00,
2013-03-02 17:11:00,49.0,33.0,-100.00,South,181,13.0,16.0,54,0.00,,,-99.99,,2013-03-03 00:11:00,
2013-03-02 17:22:00,49.0,33.0,-100.00,SSW,196,10.0,13.0,54,0.00,,,-99.99,,2013-03-03 00:22:00,
2013-03-02 17:32:00,49.0,33.0,-100.00,SSW,196,10.0,13.0,54,0.00,,,-99.99,,2013-03-03 00:32:00,
2013-03-02 17:42:00,49.0,33.0,-100.00,SSW,198,9.0,12.0,54,0.00,,,-99.99,,2013-03-03 00:42:00,
2013-03-02 17:52:00,49.0,33.0,-100.00,SSW,200,11.0,15.0,55,0.00,,,-99.99,,2013-03-03 00:52:00,
2013-03-02 18:01:00,49.0,33.0,-100.00,SSW,200,11.0,15.0,55,0.00,,,-99.99,,2013-03-03 01:01:00,
2013-03-02 18:11:00,49.0,33.0,-100.00,SSW,200,11.0,15.0,55,0.00,,,-99.99,,2013-03-03 01:11:00,
2013-03-02 18:21:00,47.0,33.0,-100.00,South,191,9.0,11.0,57,0.00,,,-99.99,,2013-03-03 01:21:00,
2013-03-02 18:31:00,47.0,33.0,-100.00,South,191,9.0,11.0,57,0.00,,,-99.99,,2013-03-03 01:31:00,
2013-03-02 18:42:00,47.0,33.0,-100.00,South,182,11.0,14.0,57,0.00,,,-99.99,,2013-03-03 01:42:00,
2013-03-02 18:52:00,47.0,33.0,-100.00,SSW,195,13.0,16.0,59,0.00,,,-99.99,,2013-03-03 01:52:00,
2013-03-02 19:01:00,47.0,33.0,-100.00,SSW,195,13.0,16.0,59,0.00,,,-99.99,,2013-03-03 02:01:00,
2013-03-02 19:11:00,47.0,33.0,-100.00,SSW,195,13.0,16.0,59,0.00,,,-99.99,,2013-03-03 02:11:00,
2013-03-02 19:21:00,47.0,33.0,-100.00,South,186,13.0,17.0,58,0.00,,,-99.99,,2013-03-03 02:21:00,
2013-03-02 19:31:00,47.0,33.0,-100.00,South,186,13.0,17.0,58,0.00,,,-99.99,,2013-03-03 02:31:00,
2013-03-02 19:42:00,47.0,33.0,-100.00,South,186,12.0,16.0,58,0.00,,,-99.99,,2013-03-03 02:42:00,
2013-03-02 19:52:00,47.0,33.0,-100.00,South,182,17.0,22.0,58,0.00,,,-99.99,,2013-03-03 02:52:00,
2013-03-02 20:01:00,47.0,33.0,-100.00,South,182,17.0,22.0,58,0.00,,,-99.99,,2013-03-03 03:01:00,
2013-03-02 20:11:00,47.0,32.0,-100.00,South,181,14.0,17.0,57,0.00,,,-99.99,,2013-03-03 03:11:00,
2013-03-02 20:21:00,47.0,32.0,-100.00,South,178,15.0,19.0,56,0.00,,,-99.99,,2013-03-03 03:21:00,
2013-03-02 20:31:00,47.0,32.0,-100.00,South,178,15.0,19.0,56,0.00,,,-99.99,,2013-03-03 03:31:00,
2013-03-02 20:41:00,46.0,32.0,-100.00,South,184,14.0,17.0,57,0.00,,,-99.99,,2013-03-03 03:41:00,
2013-03-02 20:52:00,47.0,32.0,-100.00,South,185,13.0,20.0,57,0.00,,,-99.99,,2013-03-03 03:52:00,
2013-03-02 21:01:00,47.0,32.0,-100.00,South,185,13.0,20.0,57,0.00,,,-99.99,,2013-03-03 04:01:00,
2013-03-02 21:11:00,46.0,32.0,-100.00,South,175,13.0,16.0,58,0.00,,,-99.99,,2013-03-03 04:11:00,
2013-03-02 21:21:00,46.0,32.0,-100.00,South,175,13.0,16.0,58,0.00,,,-99.99,,2013-03-03 04:21:00,
2013-03-02 21:41:00,46.0,32.0,-100.00,South,175,13.0,17.0,58,0.00,,,-99.99,,2013-03-03 04:41:00,
2013-03-02 21:52:00,47.0,32.0,-100.00,South,189,15.0,22.0,57,0.00,,,-99.99,,2013-03-03 04:52:00,
2013-03-02 22:01:00,47.0,32.0,-100.00,South,189,15.0,22.0,57,0.00,,,-99.99,,2013-03-03 05:01:00,
2013-03-02 22:11:00,46.0,32.0,-100.00,South,181,13.0,19.0,58,0.00,,,-99.99,,2013-03-03 05:11:00,
2013-03-02 22:22:00,46.0,32.0,-100.00,South,182,16.0,21.0,58,0.00,,,-99.99,,2013-03-03 05:22:00,
2013-03-02 22:32:00,46.0,32.0,-100.00,South,182,16.0,21.0,58,0.00,,,-99.99,,2013-03-03 05:32:00,
2013-03-02 22:42:00,46.0,32.0,-100.00,South,182,16.0,21.0,58,0.00,,,-99.99,,2013-03-03 05:42:00,
2013-03-02 22:52:00,46.0,32.0,-100.00,South,181,13.0,20.0,58,0.00,,,-99.99,,2013-03-03 05:52:00,
2013-03-02 23:01:00,46.0,32.0,-100.00,South,181,13.0,20.0,58,0.00,,,-99.99,,2013-03-03 06:01:00,
2013-03-02 23:11:00,47.0,32.0,-100.00,South,184,17.0,22.0,57,0.00,,,-99.99,,2013-03-03 06:11:00,
2013-03-02 23:21:00,47.0,32.0,-100.00,South,185,15.0,19.0,57,0.00,,,-99.99,,2013-03-03 06:21:00,
2013-03-02 23:31:00,47.0,32.0,-100.00,South,185,15.0,19.0,57,0.00,,,-99.99,,2013-03-03 06:31:00,
2013-03-02 23:52:00,47.0,32.0,-100.00,South,178,17.0,24.0,57,0.00,,,-99.99,,2013-03-03 06:52:00,